createdAt,value
2023-05-18T00:02:01.472Z,52.14
2023-05-18T00:04:29.785Z,52.10
2023-05-18T00:07:03.826Z,52.04
2023-05-18T00:09:35.704Z,52.14
2023-05-18T00:12:04.038Z,52.18
2023-05-18T00:14:31.211Z,52.07
2023-05-18T00:16:58.101Z,52.12
2023-05-18T00:19:25.134Z,52.00
2023-05-18T00:21:52.716Z,51.95
2023-05-18T00:24:19.851Z,51.81
2023-05-18T00:26:47.415Z,51.94
2023-05-18T00:29:14.233Z,52.05
2023-05-18T00:31:42.175Z,52.17
2023-05-18T00:34:12.202Z,52.25
2023-05-18T00:36:39.392Z,52.49
2023-05-18T00:39:07.270Z,52.62
2023-05-18T00:41:34.052Z,52.67
2023-05-18T00:44:01.126Z,52.88
2023-05-18T00:46:28.387Z,53.04
2023-05-18T00:49:02.000Z,53.04
2023-05-18T00:51:29.152Z,53.31
2023-05-18T00:53:57.073Z,54.09
2023-05-18T00:56:25.098Z,54.68
2023-05-18T00:58:55.968Z,54.88
2023-05-18T01:01:31.805Z,55.35
2023-05-18T01:04:02.483Z,55.71
2023-05-18T01:06:41.193Z,55.82
2023-05-18T01:09:10.929Z,55.68
2023-05-18T01:11:44.471Z,55.81
2023-05-18T01:14:31.953Z,55.66
2023-05-18T01:17:20.164Z,55.85
2023-05-18T01:19:56.074Z,56.24
2023-05-18T01:22:33.605Z,56.54
2023-05-18T01:25:04.803Z,56.40
2023-05-18T01:27:37.571Z,56.75
2023-05-18T01:30:08.137Z,57.13
2023-05-18T01:32:42.681Z,57.48
2023-05-18T01:35:09.723Z,57.80
2023-05-18T01:37:36.513Z,58.12
2023-05-18T01:40:05.161Z,58.35
2023-05-18T01:42:31.999Z,58.71
2023-05-18T01:45:00.572Z,58.91
2023-05-18T01:47:28.585Z,59.24
2023-05-18T01:50:17.258Z,59.42
2023-05-18T01:53:03.723Z,59.53
2023-05-18T01:55:30.940Z,59.58
2023-05-18T01:57:58.218Z,59.74
2023-05-18T02:00:25.021Z,59.86
2023-05-18T02:02:51.944Z,60.05
2023-05-18T02:05:19.161Z,60.25
2023-05-18T02:07:48.679Z,60.36
2023-05-18T02:10:15.638Z,60.38
2023-05-18T02:12:42.513Z,60.52
2023-05-18T02:15:09.940Z,60.46
2023-05-18T02:17:39.749Z,60.72
2023-05-18T02:20:08.733Z,59.82
2023-05-18T02:22:36.297Z,58.89
2023-05-18T02:25:05.226Z,58.71
2023-05-18T02:27:34.036Z,58.35
2023-05-18T02:30:01.006Z,58.10
2023-05-18T02:34:24.973Z,57.85
2023-05-18T02:36:51.840Z,57.50
2023-05-18T02:39:19.132Z,57.23
2023-05-18T02:41:46.269Z,57.38
2023-05-18T02:44:13.095Z,57.07
2023-05-18T02:46:39.980Z,57.26
2023-05-18T02:49:07.242Z,57.07
2023-05-18T02:51:34.175Z,57.12
2023-05-18T02:54:01.625Z,56.95
2023-05-18T02:56:29.323Z,56.91
2023-05-18T02:59:07.921Z,56.97
2023-05-18T03:01:38.908Z,56.77
2023-05-18T03:04:05.815Z,56.91
2023-05-18T03:06:32.946Z,57.04
2023-05-18T03:08:59.924Z,56.75
2023-05-18T03:11:32.750Z,56.68
2023-05-18T03:13:59.672Z,56.73
2023-05-18T03:16:28.701Z,56.65
2023-05-18T03:18:59.428Z,56.52
2023-05-18T03:21:34.191Z,56.39
2023-05-18T03:24:02.850Z,56.14
2023-05-18T03:26:31.037Z,55.94
2023-05-18T03:28:58.491Z,55.62
2023-05-18T03:31:26.032Z,55.53
2023-05-18T03:33:52.982Z,55.09
2023-05-18T03:36:22.663Z,55.17
2023-05-18T03:38:49.644Z,55.08
2023-05-18T03:41:16.469Z,55.20
2023-05-18T03:43:43.428Z,55.15
2023-05-18T03:46:11.536Z,55.16
2023-05-18T03:48:38.674Z,55.01
2023-05-18T03:51:06.503Z,55.02
2023-05-18T03:53:34.954Z,55.07
2023-05-18T03:56:01.926Z,54.83
2023-05-18T03:58:30.184Z,54.84
2023-05-18T04:00:57.948Z,54.76
2023-05-18T04:03:27.274Z,54.51
2023-05-18T04:05:55.879Z,54.49
2023-05-18T04:08:25.675Z,54.45
2023-05-18T04:10:52.634Z,55.07
2023-05-18T04:13:19.479Z,55.88
2023-05-18T04:15:47.838Z,56.57
2023-05-18T04:18:14.807Z,56.51
2023-05-18T04:20:42.770Z,55.05
2023-05-18T04:23:10.462Z,54.06
2023-05-18T04:25:39.548Z,53.60
2023-05-18T04:28:06.986Z,53.04
2023-05-18T04:30:35.609Z,52.60
2023-05-18T04:33:04.131Z,52.36
2023-05-18T04:35:32.228Z,52.12
2023-05-18T04:37:59.550Z,51.51
2023-05-18T04:40:26.674Z,50.73
2023-05-18T04:42:53.677Z,50.28
2023-05-18T04:45:26.463Z,49.80
2023-05-18T04:47:55.316Z,49.72
2023-05-18T04:50:25.578Z,49.66
2023-05-18T04:52:52.542Z,49.40
2023-05-18T04:55:29.028Z,49.11
2023-05-18T04:58:06.114Z,48.86
2023-05-18T05:00:33.331Z,48.54
2023-05-18T05:03:00.327Z,48.57
2023-05-18T05:05:27.677Z,48.24
2023-05-18T05:07:56.016Z,47.89
2023-05-18T05:10:22.975Z,47.86
2023-05-18T05:12:50.718Z,47.85
2023-05-18T05:15:18.947Z,47.74
2023-05-18T05:17:49.818Z,47.35
2023-05-18T05:20:17.225Z,47.28
2023-05-18T05:22:44.414Z,47.39
2023-05-18T05:25:13.735Z,47.26
2023-05-18T05:27:40.645Z,47.14
2023-05-18T05:30:08.443Z,47.42
2023-05-18T05:32:36.971Z,47.62
2023-05-18T05:35:06.176Z,47.62
2023-05-18T05:37:33.412Z,47.23
2023-05-18T05:40:00.270Z,47.06
2023-05-18T05:42:30.056Z,47.04
2023-05-18T05:44:57.061Z,47.02
2023-05-18T05:47:26.020Z,47.08
2023-05-18T05:49:53.045Z,46.91
2023-05-18T05:52:20.521Z,46.70
2023-05-18T05:54:47.538Z,46.65
2023-05-18T05:57:14.893Z,46.43
2023-05-18T05:59:41.820Z,46.16
2023-05-18T06:02:09.311Z,46.02
2023-05-18T06:04:36.353Z,45.82
2023-05-18T06:07:03.877Z,45.52
2023-05-18T06:09:30.675Z,45.24
2023-05-18T06:11:57.563Z,45.14
2023-05-18T06:14:25.781Z,44.97
2023-05-18T06:16:53.773Z,44.79
2023-05-18T06:19:20.953Z,44.46
2023-05-18T06:21:47.988Z,44.21
2023-05-18T06:24:14.887Z,43.78
2023-05-18T06:26:54.188Z,43.91
2023-05-18T06:29:47.214Z,43.84
2023-05-18T06:32:14.243Z,43.42
2023-05-18T06:34:45.901Z,43.04
2023-05-18T06:37:12.870Z,42.74
2023-05-18T06:39:40.404Z,42.62
2023-05-18T06:42:07.631Z,42.39
2023-05-18T06:44:35.968Z,42.38
2023-05-18T06:47:17.419Z,42.55
2023-05-18T06:49:44.372Z,42.61
2023-05-18T06:52:11.865Z,42.45
2023-05-18T06:54:38.774Z,42.34
2023-05-18T06:57:06.229Z,42.23
2023-05-18T06:59:34.756Z,42.20
2023-05-18T07:02:01.775Z,41.76
2023-05-18T07:04:29.927Z,41.39
2023-05-18T07:06:56.722Z,41.36
2023-05-18T07:09:24.012Z,41.03
2023-05-18T07:11:51.014Z,40.79
2023-05-18T07:14:17.869Z,40.08
2023-05-18T07:16:47.125Z,39.11
2023-05-18T07:19:14.693Z,39.10
2023-05-18T07:21:41.748Z,39.22
2023-05-18T07:24:08.589Z,39.43
2023-05-18T07:26:37.677Z,39.64
2023-05-18T07:29:04.881Z,39.84
2023-05-18T07:31:33.544Z,39.84
2023-05-18T07:34:00.401Z,39.37
2023-05-18T07:36:28.703Z,38.75
2023-05-18T07:38:56.963Z,38.90
2023-05-18T07:41:24.080Z,39.06
2023-05-18T07:43:51.383Z,39.26
2023-05-18T07:46:19.126Z,39.03
2023-05-18T07:48:46.417Z,38.76
2023-05-18T07:51:13.381Z,38.66
2023-05-18T07:53:41.667Z,38.86
2023-05-18T07:56:08.807Z,38.79
2023-05-18T07:58:36.286Z,37.75
2023-05-18T08:01:03.325Z,37.43
2023-05-18T08:03:30.263Z,37.83
2023-05-18T08:05:57.156Z,37.81
2023-05-18T08:08:24.637Z,37.06
2023-05-18T08:10:52.362Z,36.94
2023-05-18T08:13:20.062Z,36.96
2023-05-18T08:15:53.289Z,36.96
2023-05-18T08:19:02.855Z,37.11
2023-05-18T08:21:29.873Z,37.34
2023-05-18T08:23:56.731Z,37.29
2023-05-18T08:26:24.635Z,37.22
2023-05-18T08:28:51.588Z,37.01
2023-05-18T08:31:18.604Z,36.94
2023-05-18T08:33:45.440Z,36.76
2023-05-18T08:36:12.391Z,36.63
2023-05-18T08:38:39.287Z,36.36
2023-05-18T08:41:17.461Z,36.12
2023-05-18T08:43:47.080Z,35.84
2023-05-18T08:46:21.424Z,35.52
2023-05-18T08:48:49.056Z,35.52
2023-05-18T08:51:19.783Z,35.50
2023-05-18T08:53:57.607Z,35.18
2023-05-18T08:56:24.862Z,35.05
2023-05-18T08:58:54.851Z,34.76
2023-05-18T09:01:23.698Z,34.82
2023-05-18T09:03:50.669Z,33.73
2023-05-18T09:06:18.498Z,33.31
2023-05-18T09:08:46.202Z,33.29
2023-05-18T09:11:13.165Z,32.48
2023-05-18T09:13:39.910Z,32.76
2023-05-18T09:16:08.182Z,31.76
2023-05-18T09:18:35.075Z,31.19
2023-05-18T09:21:01.961Z,30.89
2023-05-18T09:23:28.763Z,30.47
2023-05-18T09:25:55.541Z,30.42
2023-05-18T09:28:33.283Z,30.19
2023-05-18T09:31:00.146Z,29.50
2023-05-18T09:33:27.146Z,28.45
2023-05-18T09:35:54.056Z,27.33
2023-05-18T09:38:24.601Z,27.17
2023-05-18T09:40:51.936Z,27.15
2023-05-18T09:43:21.796Z,26.92
2023-05-18T09:45:49.252Z,26.87
2023-05-18T09:48:16.364Z,26.78
2023-05-18T09:50:44.238Z,26.97
2023-05-18T09:53:11.251Z,26.42
2023-05-18T09:55:44.784Z,25.79
2023-05-18T09:58:11.889Z,25.56
2023-05-18T10:00:42.822Z,26.05
2023-05-18T10:03:20.651Z,25.76
2023-05-18T10:05:48.013Z,25.05
2023-05-18T10:08:15.414Z,24.76
2023-05-18T10:10:46.359Z,24.75
2023-05-18T10:13:19.537Z,24.31
2023-05-18T10:15:56.681Z,24.07
2023-05-18T10:18:24.853Z,24.04
2023-05-18T10:20:53.243Z,23.78
2023-05-18T10:23:20.961Z,23.57
2023-05-18T10:25:49.120Z,23.51
2023-05-18T10:28:38.252Z,23.49
2023-05-18T10:31:05.212Z,23.46
2023-05-18T10:33:32.078Z,23.34
2023-05-18T10:35:58.957Z,23.04
2023-05-18T10:38:27.605Z,22.93
2023-05-18T10:41:00.336Z,22.55
2023-05-18T10:43:28.188Z,22.68
2023-05-18T10:45:57.218Z,22.41
2023-05-18T10:48:24.434Z,22.38
2023-05-18T10:50:53.199Z,22.61
2023-05-18T10:53:21.197Z,22.44
2023-05-18T10:55:48.733Z,22.86
2023-05-18T10:58:17.003Z,23.11
2023-05-18T11:00:47.386Z,22.88
2023-05-18T11:03:14.542Z,22.67
2023-05-18T11:05:41.938Z,22.27
2023-05-18T11:08:08.954Z,21.66
2023-05-18T11:10:36.536Z,21.07
2023-05-18T11:13:03.410Z,20.69
2023-05-18T11:16:00.078Z,20.50
2023-05-18T11:18:35.294Z,20.39
2023-05-18T11:21:02.111Z,20.84
2023-05-18T11:23:32.728Z,20.52
2023-05-18T11:26:05.665Z,20.40
2023-05-18T11:28:33.852Z,20.40
2023-05-18T11:31:01.022Z,20.43
2023-05-18T11:33:31.673Z,20.41
2023-05-18T11:36:12.070Z,20.47
2023-05-18T11:39:07.050Z,20.90
2023-05-18T11:41:47.661Z,20.81
2023-05-18T11:44:15.341Z,20.17
2023-05-18T11:46:51.298Z,19.78
2023-05-18T11:49:18.479Z,20.04
2023-05-18T11:52:15.009Z,20.15
2023-05-18T11:54:54.196Z,20.04
2023-05-18T11:57:27.473Z,19.83
2023-05-18T11:59:55.719Z,19.49
2023-05-18T12:02:26.956Z,19.22
2023-05-18T12:04:55.305Z,18.97
2023-05-18T12:07:22.265Z,18.76
2023-05-18T12:09:49.212Z,18.55
2023-05-18T12:12:19.940Z,18.49
2023-05-18T12:14:55.700Z,18.43
2023-05-18T12:17:23.744Z,18.40
2023-05-18T12:19:50.700Z,18.49
2023-05-18T12:22:17.513Z,18.23
2023-05-18T12:24:44.445Z,18.24
2023-05-18T12:27:12.193Z,18.39
2023-05-18T12:29:42.882Z,18.31
2023-05-18T12:32:11.047Z,18.06
2023-05-18T12:34:39.433Z,17.79
2023-05-18T12:37:08.023Z,17.91
2023-05-18T12:39:37.843Z,17.75
2023-05-18T12:42:15.191Z,17.75
2023-05-18T12:44:45.824Z,17.71
2023-05-18T12:47:12.852Z,17.57
2023-05-18T12:49:48.125Z,17.64
2023-05-18T12:52:16.808Z,17.76
2023-05-18T12:55:18.274Z,17.87
2023-05-18T12:57:46.233Z,18.06
2023-05-18T13:00:13.548Z,18.52
2023-05-18T13:02:40.565Z,19.32
2023-05-18T13:05:11.747Z,19.73
2023-05-18T13:07:40.813Z,20.14
2023-05-18T13:10:08.553Z,20.57
2023-05-18T13:12:38.095Z,21.11
2023-05-18T13:15:13.056Z,21.49
2023-05-18T13:17:40.172Z,21.64
2023-05-18T13:20:14.659Z,21.99
2023-05-18T13:22:41.586Z,22.41
2023-05-18T13:25:08.490Z,22.91
2023-05-18T13:27:35.376Z,23.11
2023-05-18T13:30:02.357Z,23.34
2023-05-18T13:32:29.142Z,23.65
2023-05-18T13:34:56.015Z,24.04
2023-05-18T13:37:23.068Z,24.20
2023-05-18T13:39:49.886Z,24.40
2023-05-18T13:42:21.185Z,24.49
2023-05-18T13:44:48.378Z,24.62
2023-05-18T13:47:15.169Z,24.99
2023-05-18T13:49:41.999Z,25.24
2023-05-18T13:52:08.734Z,25.52
2023-05-18T13:54:35.525Z,25.92
2023-05-18T13:57:02.528Z,26.04
2023-05-18T13:59:29.366Z,26.04
2023-05-18T14:01:56.196Z,26.31
2023-05-18T14:04:23.078Z,26.49
2023-05-18T14:06:49.886Z,26.73
2023-05-18T14:09:16.680Z,27.06
2023-05-18T14:11:43.515Z,26.93
2023-05-18T14:14:10.591Z,26.84
2023-05-18T14:16:37.467Z,27.00
2023-05-18T14:19:04.386Z,27.24
2023-05-18T14:21:31.419Z,27.45
2023-05-18T14:23:58.257Z,27.50
2023-05-18T14:26:25.121Z,27.56
2023-05-18T14:28:51.878Z,27.59
2023-05-18T14:31:18.791Z,27.57
2023-05-18T14:33:45.738Z,27.48
2023-05-18T14:36:12.684Z,27.47
2023-05-18T14:38:39.480Z,27.30
2023-05-18T14:41:06.294Z,27.50
2023-05-18T14:43:33.089Z,27.48
2023-05-18T14:46:08.028Z,27.47
2023-05-18T14:48:35.462Z,27.59
2023-05-18T14:52:23.548Z,27.84
2023-05-18T14:54:50.477Z,27.70
2023-05-18T14:57:17.282Z,27.71
2023-05-18T14:59:44.045Z,27.98
2023-05-18T15:02:11.105Z,28.12
2023-05-18T15:04:38.004Z,28.41
2023-05-18T15:07:05.824Z,28.46
2023-05-18T15:09:32.641Z,28.89
2023-05-18T15:11:59.553Z,28.61
2023-05-18T15:14:26.439Z,28.45
2023-05-18T15:16:53.344Z,28.37
2023-05-18T15:19:20.130Z,28.58
2023-05-18T15:21:47.058Z,28.53
2023-05-18T15:24:13.961Z,28.89
2023-05-18T15:26:40.895Z,28.76
2023-05-18T15:29:07.972Z,29.06
2023-05-18T15:31:37.134Z,28.83
2023-05-18T15:34:04.055Z,28.64
2023-05-18T15:36:32.267Z,28.63
2023-05-18T15:38:59.161Z,28.59
2023-05-18T15:41:33.050Z,28.55
2023-05-18T15:44:01.774Z,29.06
2023-05-18T15:46:30.094Z,29.41
2023-05-18T15:48:57.658Z,29.86
2023-05-18T15:51:25.219Z,30.01
2023-05-18T15:53:52.001Z,30.03
2023-05-18T15:56:19.101Z,29.76
2023-05-18T15:58:46.027Z,29.85
2023-05-18T16:01:12.793Z,30.15
2023-05-18T16:03:39.865Z,30.24
2023-05-18T16:06:07.054Z,30.21
2023-05-18T16:08:33.833Z,30.13
2023-05-18T16:11:02.287Z,30.24
2023-05-18T16:13:29.237Z,30.32
2023-05-18T16:15:56.039Z,30.21
2023-05-18T16:18:22.866Z,30.30
2023-05-18T16:20:49.726Z,30.42
2023-05-18T16:23:16.554Z,30.59
2023-05-18T16:25:43.343Z,30.73
2023-05-18T16:28:10.140Z,30.89
2023-05-18T16:30:37.106Z,31.18
2023-05-18T16:33:04.076Z,31.24
2023-05-18T16:35:31.998Z,31.46
2023-05-18T16:37:59.123Z,31.66
2023-05-18T16:40:25.992Z,31.69
2023-05-18T16:43:11.588Z,31.77
2023-05-18T16:45:52.679Z,31.80
2023-05-18T16:48:19.566Z,31.75
2023-05-18T16:50:46.339Z,31.70
2023-05-18T16:53:13.261Z,31.79
2023-05-18T16:55:40.123Z,31.92
2023-05-18T16:58:06.988Z,32.16
2023-05-18T17:00:33.932Z,32.28
2023-05-18T17:03:03.393Z,32.56
2023-05-18T17:05:30.317Z,32.78
2023-05-18T17:07:57.105Z,33.02
2023-05-18T17:10:24.078Z,33.30
2023-05-18T17:12:51.906Z,33.45
2023-05-18T17:15:18.846Z,33.68
2023-05-18T17:17:45.738Z,33.94
2023-05-18T17:20:12.611Z,34.33
2023-05-18T17:22:39.526Z,34.95
2023-05-18T17:25:07.514Z,35.43
2023-05-18T17:27:34.296Z,35.88
2023-05-18T17:30:01.103Z,36.18
2023-05-18T17:32:27.989Z,36.43
2023-05-18T17:34:54.786Z,36.68
2023-05-18T17:37:22.050Z,36.57
2023-05-18T17:39:49.009Z,36.70
2023-05-18T17:42:16.212Z,36.77
2023-05-18T17:44:43.800Z,37.16
2023-05-18T17:47:11.980Z,37.53
2023-05-18T17:49:38.880Z,37.63
2023-05-18T17:52:05.909Z,37.61
2023-05-18T17:54:32.745Z,37.76
2023-05-18T17:56:59.537Z,37.95
2023-05-18T17:59:26.655Z,38.20
2023-05-18T18:01:53.573Z,38.29
2023-05-18T18:04:20.639Z,38.56
2023-05-18T18:06:47.579Z,38.84
2023-05-18T18:09:14.517Z,38.96
2023-05-18T18:11:41.582Z,39.05
2023-05-18T18:14:08.422Z,39.31
2023-05-18T18:16:35.408Z,39.53
2023-05-18T18:19:02.946Z,39.81
2023-05-18T18:21:29.839Z,39.84
2023-05-18T18:23:56.765Z,39.98
2023-05-18T18:26:23.609Z,40.11
2023-05-18T18:28:51.226Z,40.58
2023-05-18T18:31:20.365Z,40.88
2023-05-18T18:33:50.270Z,41.28
2023-05-18T18:36:17.183Z,41.42
2023-05-18T18:38:44.024Z,41.49
2023-05-18T18:41:11.396Z,41.60
2023-05-18T18:43:41.228Z,41.77
2023-05-18T18:46:08.106Z,41.76
2023-05-18T18:48:34.942Z,42.01
2023-05-18T18:51:01.758Z,42.25
2023-05-18T18:53:28.594Z,42.45
2023-05-18T18:55:57.305Z,42.47
2023-05-18T18:58:24.399Z,42.62
2023-05-18T19:00:51.239Z,42.52
2023-05-18T19:03:18.101Z,42.73
2023-05-18T19:05:45.012Z,42.67
2023-05-18T19:08:11.948Z,42.96
2023-05-18T19:10:38.796Z,43.08
2023-05-18T19:13:06.089Z,43.27
2023-05-18T19:15:34.189Z,43.52
2023-05-18T19:18:01.459Z,43.44
2023-05-18T19:20:28.483Z,43.62
2023-05-18T19:22:55.435Z,43.66
2023-05-18T19:25:24.698Z,43.36
2023-05-18T19:27:54.753Z,43.36
2023-05-18T19:30:22.202Z,43.35
2023-05-18T19:32:49.795Z,43.29
2023-05-18T19:35:19.516Z,43.39
2023-05-18T19:37:47.286Z,43.39
2023-05-18T19:40:14.089Z,43.37
2023-05-18T19:42:40.908Z,43.35
2023-05-18T19:45:07.979Z,43.39
2023-05-18T19:47:34.949Z,43.64
2023-05-18T19:50:01.977Z,43.95
2023-05-18T19:52:28.803Z,44.06
2023-05-18T19:54:56.316Z,44.17
2023-05-18T19:57:23.190Z,44.26
2023-05-18T19:59:50.088Z,44.16
2023-05-18T20:02:16.945Z,44.27
2023-05-18T20:04:43.702Z,44.39
2023-05-18T20:07:12.905Z,44.48
2023-05-18T20:09:39.920Z,44.69
2023-05-18T20:12:07.092Z,45.01
2023-05-18T20:14:34.627Z,45.14
2023-05-18T20:17:01.856Z,45.33
2023-05-18T20:19:28.995Z,45.46
2023-05-18T20:21:56.237Z,45.68
2023-05-18T20:24:24.463Z,45.82
2023-05-18T20:26:51.275Z,46.01
2023-05-18T20:29:18.037Z,46.26
2023-05-18T20:31:45.057Z,46.48
2023-05-18T20:34:11.966Z,46.58
2023-05-18T20:36:39.361Z,46.70
2023-05-18T20:39:07.388Z,46.84
2023-05-18T20:41:34.343Z,46.91
2023-05-18T20:44:02.258Z,47.09
2023-05-18T20:46:31.194Z,47.15
2023-05-18T20:48:58.274Z,47.23
2023-05-18T20:51:25.220Z,47.36
2023-05-18T20:53:52.162Z,47.40
2023-05-18T20:56:18.994Z,47.50
2023-05-18T20:58:50.046Z,47.41
2023-05-18T21:01:18.851Z,47.37
2023-05-18T21:03:46.072Z,47.42
2023-05-18T21:06:14.543Z,47.29
2023-05-18T21:08:41.480Z,47.41
2023-05-18T21:11:08.290Z,47.48
2023-05-18T21:13:36.946Z,47.61
2023-05-18T21:16:06.886Z,47.45
2023-05-18T21:18:34.792Z,47.51
2023-05-18T21:23:29.463Z,47.41
2023-05-18T21:25:56.929Z,47.49
2023-05-18T21:28:26.592Z,47.55
2023-05-18T21:30:54.303Z,47.49
2023-05-18T21:33:21.551Z,47.47
2023-05-18T21:35:48.505Z,47.42
2023-05-18T21:38:16.798Z,47.39
2023-05-18T21:40:44.065Z,47.51
2023-05-18T21:43:11.211Z,47.66
2023-05-18T21:45:38.821Z,47.90
2023-05-18T21:48:06.161Z,47.23
2023-05-18T21:50:35.163Z,47.19
2023-05-18T21:53:03.468Z,46.84
2023-05-18T21:55:31.452Z,46.65
2023-05-18T21:57:58.316Z,46.56
2023-05-18T22:00:25.174Z,46.53
2023-05-18T22:02:52.421Z,46.56
2023-05-18T22:05:19.529Z,46.52
2023-05-18T22:07:47.020Z,46.46
2023-05-18T22:10:14.041Z,46.41
2023-05-18T22:12:43.528Z,46.43
2023-05-18T22:15:11.506Z,46.53
2023-05-18T22:17:39.255Z,46.66
2023-05-18T22:20:09.790Z,46.73
2023-05-18T22:22:36.832Z,46.70
2023-05-18T22:25:03.747Z,46.70
2023-05-18T22:27:30.597Z,46.87
2023-05-18T22:29:57.724Z,46.82
2023-05-18T22:32:24.785Z,46.90
2023-05-18T22:34:52.093Z,47.10
2023-05-18T22:37:18.948Z,47.20
2023-05-18T22:39:45.900Z,47.39
2023-05-18T22:42:12.718Z,47.43
2023-05-18T22:44:39.481Z,47.61
2023-05-18T22:47:06.444Z,47.79
2023-05-18T22:49:36.086Z,47.93
2023-05-18T22:52:04.461Z,48.12
2023-05-18T22:54:31.273Z,48.21
2023-05-18T22:56:59.679Z,48.31
2023-05-18T22:59:29.429Z,48.34
2023-05-18T23:01:56.276Z,48.42
2023-05-18T23:04:23.091Z,48.56
2023-05-18T23:06:50.924Z,48.63
2023-05-18T23:09:18.519Z,48.76
2023-05-18T23:11:46.131Z,48.82
2023-05-18T23:14:13.122Z,48.92
2023-05-18T23:16:42.929Z,48.90
2023-05-18T23:19:12.329Z,48.99
2023-05-18T23:21:40.405Z,49.05
2023-05-18T23:24:08.099Z,49.23
2023-05-18T23:26:34.916Z,49.38
2023-05-18T23:29:01.760Z,49.43
2023-05-18T23:31:28.840Z,49.54
2023-05-18T23:33:56.117Z,49.60
2023-05-18T23:36:22.971Z,49.75
2023-05-18T23:38:49.748Z,49.81
2023-05-18T23:41:16.603Z,49.83
2023-05-18T23:43:43.687Z,49.91
2023-05-18T23:46:10.983Z,49.94
2023-05-18T23:48:38.421Z,50.09
2023-05-18T23:51:05.844Z,50.07
2023-05-18T23:53:32.764Z,50.16
2023-05-18T23:55:59.879Z,50.28
2023-05-18T23:58:31.511Z,50.27
